Time;durP1;ratioP1;P1;durP2;ratioP2;P2;SDS_P1;SDS_P2;PMS_P1;PMS_P2;Temp;Humidity;BMP_temperature;BMP_pressure;BME280_temperature;BME280_humidity;BME280_pressure;Samples;Min_cycle;Max_cycle;Signal;HPM_P1;HPM_P2
2022/11/13 00:01:44;;;;;;;49.78;32.03;;;;;;;;;;5113159;28;20016;-70
2022/11/13 00:04:30;;;;;;;50.10;32.47;;;;;;;;;;5113173;28;20039;-70
2022/11/13 00:07:16;;;;;;;47.90;31.55;;;;;;;;;;5112355;28;20417;-71
2022/11/13 00:10:01;;;;;;;45.60;31.00;;;;;;;;;;5112496;28;20019;-70
2022/11/13 00:12:47;;;;;;;47.78;31.55;;;;;;;;;;5113296;28;20019;-71
2022/11/13 00:15:32;;;;;;;61.63;37.17;;;;;;;;;;5111489;28;20051;-71
2022/11/13 00:18:18;;;;;;;75.22;40.60;;;;;;;;;;5113120;28;20031;-70
2022/11/13 00:21:07;;;;;;;61.75;37.58;;;;;;;;;;5111765;28;20022;-71
2022/11/13 00:23:54;;;;;;;56.42;35.95;;;;;;;;;;5113030;28;20375;-71
2022/11/13 00:26:40;;;;;;;71.78;36.28;;;;;;;;;;5111912;28;20019;-70
2022/11/13 00:29:25;;;;;;;65.15;37.08;;;;;;;;;;5112993;28;20489;-71
2022/11/13 00:32:11;;;;;;;57.30;35.95;;;;;;;;;;5112729;28;20019;-71
2022/11/13 00:34:57;;;;;;;65.78;37.05;;;;;;;;;;5112598;28;20043;-71
2022/11/13 00:37:42;;;;;;;67.65;36.80;;;;;;;;;;5116118;28;20058;-72
2022/11/13 00:40:28;;;;;;;61.20;36.72;;;;;;;;;;5116552;28;20394;-70
2022/11/13 00:43:13;;;;;;;60.20;37.05;;;;;;;;;;5117102;28;20085;-70
2022/11/13 00:45:59;;;;;;;59.40;37.55;;;;;;;;;;5117416;28;20087;-70
2022/11/13 00:48:44;;;;;;;98.25;39.22;;;;;;;;;;5116202;28;20031;-70
2022/11/13 00:51:30;;;;;;;64.45;37.60;;;;;;;;;;5116725;28;20348;-71
2022/11/13 00:54:16;;;;;;;65.75;38.38;;;;;;;;;;5116285;28;20020;-70
2022/11/13 00:57:01;;;;;;;58.15;36.30;;;;;;;;;;5115802;28;20107;-71
2022/11/13 00:59:47;;;;;;;64.30;37.03;;;;;;;;;;5116445;28;20034;-70
2022/11/13 01:02:32;;;;;;;64.72;37.78;;;;;;;;;;5115820;28;20421;-70
2022/11/13 01:05:18;;;;;;;65.68;39.78;;;;;;;;;;5116540;28;20038;-70
2022/11/13 01:08:04;;;;;;;60.45;38.38;;;;;;;;;;5116084;28;20110;-70
2022/11/13 01:10:50;;;;;;;65.85;39.17;;;;;;;;;;5116024;28;20028;-70
2022/11/13 01:13:35;;;;;;;64.30;38.60;;;;;;;;;;5115919;28;20024;-71
2022/11/13 01:16:23;;;;;;;65.82;39.00;;;;;;;;;;5116232;28;20110;-70
2022/11/13 01:19:08;;;;;;;75.95;38.65;;;;;;;;;;5116270;28;20525;-70
2022/11/13 01:21:54;;;;;;;76.45;39.13;;;;;;;;;;5115531;28;20067;-70
2022/11/13 01:24:39;;;;;;;58.10;33.85;;;;;;;;;;5116044;28;20019;-70
2022/11/13 01:27:25;;;;;;;62.88;34.47;;;;;;;;;;5116314;28;20015;-69
2022/11/13 01:30:11;;;;;;;52.97;30.35;;;;;;;;;;5116432;28;20176;-70
2022/11/13 01:32:56;;;;;;;54.72;28.98;;;;;;;;;;5115867;28;20106;-70
2022/11/13 01:35:42;;;;;;;44.85;26.40;;;;;;;;;;5115507;28;20015;-70
2022/11/13 01:38:27;;;;;;;48.03;26.58;;;;;;;;;;5115598;28;20131;-70
2022/11/13 01:41:27;;;;;;;52.28;27.58;;;;;;;;;;5115606;28;20018;-69
2022/11/13 01:44:13;;;;;;;42.65;25.77;;;;;;;;;;5116022;28;20112;-71
2022/11/13 01:46:59;;;;;;;54.72;28.58;;;;;;;;;;5115607;28;20023;-70
2022/11/13 01:49:45;;;;;;;47.53;26.05;;;;;;;;;;5116143;28;20052;-70
2022/11/13 01:52:32;;;;;;;46.92;26.65;;;;;;;;;;5115762;28;20024;-69
2022/11/13 01:55:18;;;;;;;56.85;27.02;;;;;;;;;;5115516;28;20373;-70
2022/11/13 01:58:04;;;;;;;54.33;26.60;;;;;;;;;;5114773;28;20107;-71
2022/11/13 02:00:50;;;;;;;46.92;25.67;;;;;;;;;;5114948;28;20023;-71
2022/11/13 02:03:36;;;;;;;45.13;25.95;;;;;;;;;;5115460;28;20061;-70
2022/11/13 02:06:21;;;;;;;43.90;25.77;;;;;;;;;;5114989;28;20046;-70
2022/11/13 02:09:08;;;;;;;47.22;25.83;;;;;;;;;;5114595;28;20027;-70
2022/11/13 02:11:54;;;;;;;45.15;25.60;;;;;;;;;;5114607;28;20030;-69
2022/11/13 02:14:41;;;;;;;52.13;28.25;;;;;;;;;;5114259;28;20027;-70
2022/11/13 02:17:29;;;;;;;50.28;28.65;;;;;;;;;;5114364;28;20028;-70
2022/11/13 02:20:16;;;;;;;47.15;26.40;;;;;;;;;;5114873;28;20390;-70
2022/11/13 02:23:10;;;;;;;52.38;30.10;;;;;;;;;;5114604;28;20375;-70
2022/11/13 02:25:55;;;;;;;49.30;27.80;;;;;;;;;;5114828;28;20027;-70
2022/11/13 02:28:41;;;;;;;48.35;27.85;;;;;;;;;;5114830;28;20447;-70
2022/11/13 02:31:26;;;;;;;49.47;27.90;;;;;;;;;;5114887;28;20032;-70
2022/11/13 02:34:12;;;;;;;49.28;28.38;;;;;;;;;;5115523;28;20026;-70
2022/11/13 02:36:58;;;;;;;46.80;27.98;;;;;;;;;;5114820;28;20055;-70
2022/11/13 02:39:43;;;;;;;52.53;28.60;;;;;;;;;;5114654;28;20024;-69
2022/11/13 02:42:29;;;;;;;52.50;28.02;;;;;;;;;;5113649;28;20022;-70
2022/11/13 02:45:14;;;;;;;48.15;27.05;;;;;;;;;;5114518;28;20360;-70
2022/11/13 02:48:00;;;;;;;45.58;26.23;;;;;;;;;;5114318;28;20035;-71
2022/11/13 02:50:46;;;;;;;44.60;26.05;;;;;;;;;;5113296;28;20058;-69
2022/11/13 02:53:31;;;;;;;47.05;26.77;;;;;;;;;;5115234;28;20023;-70
2022/11/13 02:56:17;;;;;;;45.35;26.23;;;;;;;;;;5114340;28;20089;-70
2022/11/13 02:59:03;;;;;;;47.13;27.33;;;;;;;;;;5113146;28;20023;-70
2022/11/13 03:01:48;;;;;;;45.65;27.13;;;;;;;;;;5114321;28;20062;-70
2022/11/13 03:04:34;;;;;;;43.28;26.88;;;;;;;;;;5113206;28;20364;-71
2022/11/13 03:07:19;;;;;;;46.88;27.10;;;;;;;;;;5114303;28;20440;-71
2022/11/13 03:10:06;;;;;;;47.45;26.25;;;;;;;;;;5113277;28;20085;-70
2022/11/13 03:12:51;;;;;;;46.75;26.88;;;;;;;;;;5114453;28;20411;-71
2022/11/13 03:15:37;;;;;;;48.45;26.95;;;;;;;;;;5113631;28;20052;-71
2022/11/13 03:18:22;;;;;;;40.13;24.90;;;;;;;;;;5113160;28;20465;-70
2022/11/13 03:21:09;;;;;;;44.83;25.95;;;;;;;;;;5113586;28;20023;-71
2022/11/13 03:23:55;;;;;;;49.47;25.70;;;;;;;;;;5113497;28;20028;-70
2022/11/13 03:26:40;;;;;;;40.75;25.92;;;;;;;;;;5113883;28;20043;-71
2022/11/13 03:29:26;;;;;;;51.05;27.83;;;;;;;;;;5113607;28;20062;-71
2022/11/13 03:32:11;;;;;;;45.47;26.30;;;;;;;;;;5113504;28;20023;-70
2022/11/13 03:34:57;;;;;;;51.47;26.25;;;;;;;;;;5113783;28;20024;-70
2022/11/13 03:37:43;;;;;;;41.60;24.98;;;;;;;;;;5113193;28;20043;-70
2022/11/13 03:40:28;;;;;;;41.78;25.48;;;;;;;;;;5113778;28;20037;-70
2022/11/13 03:43:14;;;;;;;42.33;25.10;;;;;;;;;;5112716;28;20047;-70
2022/11/13 03:46:00;;;;;;;40.83;24.35;;;;;;;;;;5113604;28;20447;-70
2022/11/13 03:48:45;;;;;;;41.67;25.40;;;;;;;;;;5113773;28;20103;-70
2022/11/13 03:51:31;;;;;;;47.05;27.52;;;;;;;;;;5113966;28;20027;-70
2022/11/13 03:54:16;;;;;;;44.45;27.23;;;;;;;;;;5112802;28;20124;-70
2022/11/13 03:57:02;;;;;;;44.88;25.98;;;;;;;;;;5114119;28;20024;-70
2022/11/13 03:59:48;;;;;;;41.38;24.88;;;;;;;;;;5113321;28;20023;-70
2022/11/13 04:02:33;;;;;;;47.13;26.23;;;;;;;;;;5114024;28;20031;-69
2022/11/13 04:05:19;;;;;;;44.67;26.13;;;;;;;;;;5113775;28;20382;-70
2022/11/13 04:08:05;;;;;;;41.58;24.27;;;;;;;;;;5112221;28;20115;-70
2022/11/13 04:10:50;;;;;;;48.10;26.67;;;;;;;;;;5115388;28;20030;-71
2022/11/13 04:13:36;;;;;;;43.00;25.73;;;;;;;;;;5117223;28;20027;-70
2022/11/13 04:16:22;;;;;;;50.42;26.60;;;;;;;;;;5117270;28;20022;-70
2022/11/13 04:19:07;;;;;;;46.17;25.65;;;;;;;;;;5117277;28;20463;-70
2022/11/13 04:21:53;;;;;;;46.63;26.77;;;;;;;;;;5117223;28;20493;-70
2022/11/13 04:24:38;;;;;;;50.33;27.02;;;;;;;;;;5117177;28;20015;-70
2022/11/13 04:27:24;;;;;;;54.53;27.88;;;;;;;;;;5117196;28;20394;-70
2022/11/13 04:30:10;;;;;;;51.38;28.88;;;;;;;;;;5117594;28;20110;-69
2022/11/13 04:32:55;;;;;;;55.00;28.42;;;;;;;;;;5117982;28;20099;-69
2022/11/13 04:35:44;;;;;;;53.88;28.42;;;;;;;;;;5118352;28;20450;-69
2022/11/13 04:38:30;;;;;;;55.72;29.48;;;;;;;;;;5116170;28;20055;-70
2022/11/13 04:44:19;;;;;;;58.58;30.23;;;;;;;;;;5117295;28;20107;-71
2022/11/13 04:47:05;;;;;;;58.83;29.85;;;;;;;;;;5116890;28;20015;-71
2022/11/13 04:49:51;;;;;;;62.70;29.20;;;;;;;;;;5116612;28;20103;-70
2022/11/13 04:52:36;;;;;;;66.10;30.33;;;;;;;;;;5116912;28;20204;-72
2022/11/13 04:55:22;;;;;;;66.78;30.40;;;;;;;;;;5116950;28;20020;-72
2022/11/13 04:58:07;;;;;;;67.53;31.40;;;;;;;;;;5116261;28;20019;-70
2022/11/13 05:00:53;;;;;;;64.95;30.20;;;;;;;;;;5116527;28;20088;-70
2022/11/13 05:03:39;;;;;;;66.97;31.45;;;;;;;;;;5116659;28;20099;-71
2022/11/13 05:06:24;;;;;;;67.97;30.45;;;;;;;;;;5117142;28;20028;-71
2022/11/13 05:09:10;;;;;;;65.43;30.80;;;;;;;;;;5116161;28;20088;-70
2022/11/13 05:11:55;;;;;;;65.60;31.70;;;;;;;;;;5116535;28;20076;-70
2022/11/13 05:14:41;;;;;;;68.85;32.20;;;;;;;;;;5116199;28;20031;-70
2022/11/13 05:17:26;;;;;;;64.85;31.00;;;;;;;;;;5116122;28;20023;-70
2022/11/13 05:20:12;;;;;;;62.80;31.85;;;;;;;;;;5116116;28;20080;-71
2022/11/13 05:22:57;;;;;;;58.90;29.08;;;;;;;;;;5115188;28;20020;-70
2022/11/13 05:25:43;;;;;;;56.67;26.90;;;;;;;;;;5115630;28;20012;-70
2022/11/13 05:28:29;;;;;;;55.55;29.27;;;;;;;;;;5115800;28;20028;-70
2022/11/13 05:31:15;;;;;;;58.35;28.67;;;;;;;;;;5116172;28;20023;-70
2022/11/13 05:34:02;;;;;;;59.17;29.45;;;;;;;;;;5115691;28;20019;-69
2022/11/13 05:36:47;;;;;;;55.70;26.75;;;;;;;;;;5115792;28;20043;-69
2022/11/13 05:39:33;;;;;;;51.80;26.92;;;;;;;;;;5115710;28;20024;-71
2022/11/13 05:42:18;;;;;;;56.53;27.77;;;;;;;;;;5116454;28;20068;-70
2022/11/13 05:45:04;;;;;;;54.35;27.90;;;;;;;;;;5115298;28;20031;-70
2022/11/13 05:47:50;;;;;;;68.05;28.77;;;;;;;;;;5114723;28;20140;-70
2022/11/13 05:50:35;;;;;;;64.85;28.98;;;;;;;;;;5116260;28;20451;-71
2022/11/13 05:53:21;;;;;;;64.80;29.33;;;;;;;;;;5116143;28;20034;-70
2022/11/13 05:56:09;;;;;;;62.17;28.83;;;;;;;;;;5115019;28;20401;-71
2022/11/13 05:58:55;;;;;;;56.55;28.00;;;;;;;;;;5114794;28;20020;-70
2022/11/13 06:01:41;;;;;;;65.95;29.25;;;;;;;;;;5115044;28;20015;-70
2022/11/13 06:04:26;;;;;;;57.42;28.17;;;;;;;;;;5115356;28;20436;-70
2022/11/13 06:07:12;;;;;;;49.53;25.05;;;;;;;;;;5115672;28;20019;-70
2022/11/13 06:09:57;;;;;;;49.95;24.35;;;;;;;;;;5115049;28;20047;-70
2022/11/13 06:12:43;;;;;;;55.80;26.25;;;;;;;;;;5114910;28;20027;-70
2022/11/13 06:15:28;;;;;;;54.33;27.27;;;;;;;;;;5115386;28;20034;-71
2022/11/13 06:18:14;;;;;;;59.40;26.65;;;;;;;;;;5114946;28;20031;-71
2022/11/13 06:21:03;;;;;;;52.40;24.65;;;;;;;;;;5114799;28;20027;-70
2022/11/13 06:23:49;;;;;;;50.33;24.83;;;;;;;;;;5114766;28;20031;-71
2022/11/13 06:26:35;;;;;;;51.05;24.60;;;;;;;;;;5114592;28;20007;-71
2022/11/13 06:29:20;;;;;;;47.08;24.60;;;;;;;;;;5114271;28;20432;-70
2022/11/13 06:32:06;;;;;;;54.45;26.10;;;;;;;;;;5113660;28;20077;-69
2022/11/13 06:34:52;;;;;;;51.78;24.42;;;;;;;;;;5114556;28;20024;-72
2022/11/13 06:37:37;;;;;;;49.70;24.17;;;;;;;;;;5113359;28;20467;-71
2022/11/13 06:40:23;;;;;;;55.65;26.40;;;;;;;;;;5114307;28;20472;-70
2022/11/13 06:43:08;;;;;;;45.25;24.20;;;;;;;;;;5114688;28;20570;-71
2022/11/13 06:45:54;;;;;;;49.65;25.83;;;;;;;;;;5114300;28;20115;-71
2022/11/13 06:48:40;;;;;;;50.65;25.27;;;;;;;;;;5114718;28;20027;-70
2022/11/13 06:51:27;;;;;;;47.08;24.58;;;;;;;;;;5114391;28;20427;-71
2022/11/13 06:54:12;;;;;;;50.28;26.30;;;;;;;;;;5114650;28;20031;-71
2022/11/13 06:56:58;;;;;;;49.45;25.48;;;;;;;;;;5113517;28;20028;-71
2022/11/13 06:59:44;;;;;;;47.22;25.20;;;;;;;;;;5114775;28;20024;-69
2022/11/13 07:02:29;;;;;;;44.42;24.05;;;;;;;;;;5113984;28;20340;-70
2022/11/13 07:05:15;;;;;;;45.78;24.73;;;;;;;;;;5115034;28;20124;-71
2022/11/13 07:08:01;;;;;;;47.55;24.75;;;;;;;;;;5113980;28;20024;-70
2022/11/13 07:10:53;;;;;;;42.35;24.52;;;;;;;;;;5113804;28;20080;-70
2022/11/13 07:13:39;;;;;;;47.10;25.70;;;;;;;;;;5113600;28;20085;-70
2022/11/13 07:16:25;;;;;;;43.35;24.25;;;;;;;;;;5113768;28;20023;-71
2022/11/13 07:19:10;;;;;;;48.90;25.75;;;;;;;;;;5114670;28;20066;-71
2022/11/13 07:21:56;;;;;;;45.75;24.17;;;;;;;;;;5114303;28;20045;-71
2022/11/13 07:24:42;;;;;;;51.70;25.55;;;;;;;;;;5114518;28;20438;-71
2022/11/13 07:27:27;;;;;;;48.42;24.95;;;;;;;;;;5113868;28;20019;-71
2022/11/13 07:30:13;;;;;;;50.15;24.73;;;;;;;;;;5113987;28;20030;-72
2022/11/13 07:33:02;;;;;;;49.92;24.20;;;;;;;;;;5113659;28;20178;-70
2022/11/13 07:35:47;;;;;;;51.70;26.30;;;;;;;;;;5113686;28;20024;-71
2022/11/13 07:38:33;;;;;;;51.65;27.25;;;;;;;;;;5115209;28;20479;-71
2022/11/13 07:41:18;;;;;;;54.25;26.35;;;;;;;;;;5114898;28;20470;-70
2022/11/13 07:44:04;;;;;;;53.17;26.48;;;;;;;;;;5114719;28;20027;-71
2022/11/13 07:46:50;;;;;;;50.22;25.65;;;;;;;;;;5114583;28;20077;-70
2022/11/13 07:49:35;;;;;;;53.33;26.92;;;;;;;;;;5114739;28;20103;-71
2022/11/13 07:52:21;;;;;;;49.03;25.75;;;;;;;;;;5114583;28;20402;-70
2022/11/13 07:55:06;;;;;;;47.60;25.65;;;;;;;;;;5114870;28;20051;-71
2022/11/13 07:57:59;;;;;;;48.75;25.92;;;;;;;;;;5114432;28;20028;-71
2022/11/13 08:00:44;;;;;;;48.25;25.63;;;;;;;;;;5115136;28;20134;-70
2022/11/13 08:03:30;;;;;;;46.42;23.90;;;;;;;;;;5114311;28;20015;-70
2022/11/13 08:06:16;;;;;;;47.95;25.00;;;;;;;;;;5114841;28;20030;-71
2022/11/13 08:09:02;;;;;;;45.13;25.00;;;;;;;;;;5114911;28;20466;-71
2022/11/13 08:11:47;;;;;;;43.25;24.00;;;;;;;;;;5114774;28;20556;-71
2022/11/13 08:14:33;;;;;;;42.40;23.80;;;;;;;;;;5100366;28;20023;-70
2022/11/13 08:17:18;;;;;;;41.08;23.63;;;;;;;;;;5114290;28;20106;-70
2022/11/13 08:20:05;;;;;;;40.65;23.02;;;;;;;;;;5114582;28;20023;-70
2022/11/13 08:22:50;;;;;;;42.67;24.45;;;;;;;;;;5114701;28;20020;-70
2022/11/13 08:25:36;;;;;;;39.38;23.25;;;;;;;;;;5099314;28;20011;-71
2022/11/13 08:28:22;;;;;;;42.85;23.00;;;;;;;;;;5114279;28;20020;-70
2022/11/13 08:31:11;;;;;;;45.47;24.20;;;;;;;;;;5114946;28;20027;-69
2022/11/13 08:33:58;;;;;;;40.78;22.85;;;;;;;;;;5114811;28;20015;-70
2022/11/13 08:36:43;;;;;;;43.17;23.65;;;;;;;;;;5115007;28;20054;-73
2022/11/13 08:39:34;;;;;;;39.22;23.70;;;;;;;;;;5100396;28;20434;-71
2022/11/13 08:42:19;;;;;;;42.65;23.77;;;;;;;;;;5114043;28;20462;-70
2022/11/13 08:48:11;;;;;;;36.63;21.80;;;;;;;;;;5113298;28;20020;-72
2022/11/13 08:50:57;;;;;;;37.15;21.67;;;;;;;;;;5114636;28;20078;-72
2022/11/13 08:53:43;;;;;;;38.92;22.85;;;;;;;;;;5115343;28;20032;-71
2022/11/13 08:56:29;;;;;;;38.10;21.83;;;;;;;;;;5115246;28;20027;-70
2022/11/13 08:59:15;;;;;;;37.60;22.20;;;;;;;;;;5119443;28;20012;-71
2022/11/13 09:02:01;;;;;;;38.72;21.55;;;;;;;;;;5118913;28;20028;-71
2022/11/13 09:04:46;;;;;;;39.17;21.63;;;;;;;;;;5104416;28;20023;-75
2022/11/13 09:07:32;;;;;;;38.80;22.73;;;;;;;;;;5103454;28;20026;-73
2022/11/13 09:10:18;;;;;;;34.58;20.65;;;;;;;;;;5117632;28;20023;-73
2022/11/13 09:13:04;;;;;;;35.17;21.98;;;;;;;;;;5117031;28;20375;-73
2022/11/13 09:15:49;;;;;;;36.95;21.52;;;;;;;;;;5117569;28;20019;-74
2022/11/13 09:18:35;;;;;;;36.88;21.73;;;;;;;;;;5117416;28;20024;-73
2022/11/13 09:21:21;;;;;;;33.80;20.58;;;;;;;;;;5101968;28;20008;-73
2022/11/13 09:24:06;;;;;;;38.13;21.70;;;;;;;;;;5102512;28;20016;-73
2022/11/13 09:26:52;;;;;;;34.58;20.60;;;;;;;;;;5102821;28;20023;-73
2022/11/13 09:29:38;;;;;;;38.15;21.65;;;;;;;;;;5117607;28;20015;-73
2022/11/13 09:32:23;;;;;;;38.88;22.85;;;;;;;;;;5102852;28;20055;-73
2022/11/13 09:35:09;;;;;;;34.35;21.13;;;;;;;;;;5102856;28;20101;-73
2022/11/13 09:37:55;;;;;;;35.55;21.15;;;;;;;;;;5116618;28;20127;-74
2022/11/13 09:40:42;;;;;;;37.67;21.50;;;;;;;;;;5102737;28;20027;-73
2022/11/13 09:43:34;;;;;;;34.03;21.98;;;;;;;;;;5117086;28;20134;-73
2022/11/13 09:46:19;;;;;;;33.17;20.58;;;;;;;;;;5116549;28;20082;-73
2022/11/13 09:49:24;;;;;;;33.85;21.25;;;;;;;;;;5116957;28;20073;-72
2022/11/13 09:52:13;;;;;;;34.92;21.65;;;;;;;;;;5116858;28;20103;-73
2022/11/13 09:54:58;;;;;;;35.92;21.83;;;;;;;;;;5116744;28;20058;-73
2022/11/13 09:58:13;;;;;;;35.97;22.00;;;;;;;;;;5116813;28;20435;-72
2022/11/13 10:00:59;;;;;;;33.15;21.00;;;;;;;;;;5109551;28;20024;-73
2022/11/13 10:03:48;;;;;;;33.35;20.77;;;;;;;;;;5116854;28;20084;-73
2022/11/13 10:06:57;;;;;;;30.60;19.27;;;;;;;;;;5116423;28;20012;-73
2022/11/13 10:10:08;;;;;;;32.40;20.30;;;;;;;;;;5117359;27;20030;-74
2022/11/13 10:12:55;;;;;;;29.73;19.20;;;;;;;;;;5116391;28;20081;-71
2022/11/13 10:15:42;;;;;;;33.28;21.10;;;;;;;;;;5117956;28;20031;-71
2022/11/13 10:18:32;;;;;;;32.63;19.98;;;;;;;;;;5116132;28;20019;-71
2022/11/13 10:21:17;;;;;;;39.70;22.13;;;;;;;;;;5116384;28;20020;-71
2022/11/13 10:24:04;;;;;;;33.30;21.35;;;;;;;;;;5116379;28;20020;-71
2022/11/13 10:26:49;;;;;;;36.35;21.88;;;;;;;;;;5116497;28;20024;-74
2022/11/13 10:29:35;;;;;;;31.95;20.90;;;;;;;;;;5116863;28;20156;-72
2022/11/13 10:32:22;;;;;;;34.45;21.13;;;;;;;;;;5102172;28;20464;-72
2022/11/13 10:35:11;;;;;;;37.42;21.45;;;;;;;;;;5116282;28;20015;-74
2022/11/13 10:38:02;;;;;;;34.63;20.33;;;;;;;;;;5116140;28;20047;-71
2022/11/13 10:40:48;;;;;;;36.45;21.88;;;;;;;;;;5103074;28;20022;-73
2022/11/13 10:43:34;;;;;;;40.72;22.67;;;;;;;;;;5101767;28;20355;-73
2022/11/13 10:46:23;;;;;;;31.05;20.48;;;;;;;;;;5116466;28;20012;-74
2022/11/13 10:49:10;;;;;;;33.65;21.23;;;;;;;;;;5116427;28;20185;-71
2022/11/13 10:51:57;;;;;;;32.97;21.27;;;;;;;;;;5116870;28;20509;-73
2022/11/13 10:54:43;;;;;;;33.65;20.23;;;;;;;;;;5116470;28;20023;-73
2022/11/13 10:57:33;;;;;;;32.50;20.70;;;;;;;;;;5115646;28;20028;-73
2022/11/13 11:00:23;;;;;;;36.30;21.23;;;;;;;;;;5115429;28;20517;-72
2022/11/13 11:03:16;;;;;;;33.97;22.70;;;;;;;;;;5100796;28;20443;-74
2022/11/13 11:06:03;;;;;;;37.58;23.17;;;;;;;;;;5115865;28;20465;-73
2022/11/13 11:08:48;;;;;;;35.25;22.58;;;;;;;;;;5115651;28;20459;-71
2022/11/13 11:14:41;;;;;;;34.92;21.98;;;;;;;;;;5117202;28;20374;-71
2022/11/13 11:17:30;;;;;;;29.98;20.77;;;;;;;;;;5099945;28;20024;-70
2022/11/13 11:20:19;;;;;;;31.02;21.10;;;;;;;;;;5114906;28;20077;-70
2022/11/13 11:23:15;;;;;;;31.30;20.52;;;;;;;;;;5115597;28;20098;-72
2022/11/13 11:26:05;;;;;;;33.58;21.27;;;;;;;;;;5115014;28;20055;-71
2022/11/13 11:28:56;;;;;;;37.17;23.05;;;;;;;;;;5115674;28;20062;-71
2022/11/13 11:31:44;;;;;;;30.75;21.27;;;;;;;;;;5116047;28;20062;-71
2022/11/13 11:34:32;;;;;;;31.17;20.85;;;;;;;;;;5100251;28;20028;-70
2022/11/13 11:37:23;;;;;;;32.30;21.45;;;;;;;;;;5100671;28;20071;-71
2022/11/13 11:40:15;;;;;;;32.88;21.45;;;;;;;;;;5114972;28;20062;-70
2022/11/13 11:43:10;;;;;;;35.33;22.55;;;;;;;;;;5115472;28;20019;-71
2022/11/13 11:45:56;;;;;;;36.15;23.23;;;;;;;;;;5115405;28;20020;-69
2022/11/13 11:48:42;;;;;;;34.65;21.85;;;;;;;;;;5114407;28;20516;-71
2022/11/13 11:51:37;;;;;;;32.55;21.88;;;;;;;;;;5114793;28;20066;-70
2022/11/13 11:54:22;;;;;;;35.47;21.92;;;;;;;;;;5116318;28;20058;-70
2022/11/13 11:57:26;;;;;;;38.28;25.08;;;;;;;;;;5115705;28;20030;-70
2022/11/13 12:00:14;;;;;;;39.22;24.13;;;;;;;;;;5100443;28;20027;-71
2022/11/13 12:03:11;;;;;;;34.03;22.88;;;;;;;;;;5114609;28;20342;-72
2022/11/13 12:06:12;;;;;;;35.40;22.63;;;;;;;;;;5114257;28;20015;-71
2022/11/13 12:09:13;;;;;;;38.33;24.30;;;;;;;;;;5099491;28;20020;-71
2022/11/13 12:12:04;;;;;;;35.47;22.60;;;;;;;;;;5099969;28;20471;-70
2022/11/13 12:14:49;;;;;;;35.33;23.52;;;;;;;;;;5114310;28;20471;-70
2022/11/13 12:17:35;;;;;;;33.33;22.17;;;;;;;;;;5114339;28;20064;-72
2022/11/13 12:20:34;;;;;;;33.17;22.20;;;;;;;;;;5114283;28;20115;-71
2022/11/13 12:23:23;;;;;;;30.50;20.67;;;;;;;;;;5115180;28;20023;-70
2022/11/13 12:26:11;;;;;;;30.42;20.88;;;;;;;;;;5114062;28;20406;-71
2022/11/13 12:29:04;;;;;;;32.45;22.60;;;;;;;;;;5114825;28;20085;-71
2022/11/13 12:31:56;;;;;;;31.15;22.25;;;;;;;;;;5117055;28;20027;-70
2022/11/13 12:34:49;;;;;;;32.67;22.23;;;;;;;;;;5118271;28;20016;-70
2022/11/13 12:37:41;;;;;;;32.58;21.98;;;;;;;;;;5118532;28;20051;-71
2022/11/13 12:40:32;;;;;;;35.08;22.95;;;;;;;;;;5117999;28;20063;-71
2022/11/13 12:43:27;;;;;;;33.75;22.27;;;;;;;;;;5118389;28;20024;-70
2022/11/13 12:46:13;;;;;;;34.80;23.08;;;;;;;;;;5118642;28;20317;-72
2022/11/13 12:48:59;;;;;;;31.48;21.85;;;;;;;;;;5117937;28;20375;-69
2022/11/13 12:51:53;;;;;;;32.95;22.25;;;;;;;;;;5118023;28;20035;-70
2022/11/13 12:54:38;;;;;;;36.03;22.92;;;;;;;;;;5118172;28;20093;-71
2022/11/13 12:57:24;;;;;;;36.28;22.90;;;;;;;;;;5118367;28;20051;-70
2022/11/13 13:00:19;;;;;;;33.08;21.23;;;;;;;;;;5102588;28;20057;-69
2022/11/13 13:03:11;;;;;;;32.13;21.48;;;;;;;;;;5117478;28;20024;-70
2022/11/13 13:06:03;;;;;;;37.92;23.83;;;;;;;;;;5117772;28;20069;-71
2022/11/13 13:09:01;;;;;;;32.45;22.33;;;;;;;;;;5104249;28;20457;-70
2022/11/13 13:12:07;;;;;;;34.17;21.73;;;;;;;;;;5117532;28;20110;-70
2022/11/13 13:14:58;;;;;;;31.63;21.70;;;;;;;;;;5081430;28;20436;-69
2022/11/13 13:17:44;;;;;;;35.38;21.92;;;;;;;;;;5117167;28;20027;-71
2022/11/13 13:20:34;;;;;;;34.35;22.00;;;;;;;;;;5117626;28;20031;-71
2022/11/13 13:23:25;;;;;;;33.47;21.60;;;;;;;;;;5117164;28;20061;-70
2022/11/13 13:26:21;;;;;;;38.20;24.35;;;;;;;;;;5103270;28;20034;-71
2022/11/13 13:29:15;;;;;;;38.53;25.25;;;;;;;;;;5117999;28;20047;-70
2022/11/13 13:32:00;;;;;;;37.60;24.20;;;;;;;;;;5118842;28;20027;-69
2022/11/13 13:34:52;;;;;;;34.40;23.48;;;;;;;;;;5117083;28;20455;-71
2022/11/13 13:37:46;;;;;;;43.20;24.00;;;;;;;;;;5101690;28;20065;-71
2022/11/13 13:40:34;;;;;;;36.08;23.35;;;;;;;;;;5118208;27;20429;-70
2022/11/13 13:43:40;;;;;;;36.72;22.85;;;;;;;;;;5116503;28;20031;-71
2022/11/13 13:46:29;;;;;;;42.30;25.15;;;;;;;;;;5102701;28;20034;-69
2022/11/13 13:49:17;;;;;;;36.53;22.50;;;;;;;;;;5116851;28;20111;-69
2022/11/13 13:52:04;;;;;;;41.55;25.30;;;;;;;;;;5116578;28;20027;-70
2022/11/13 13:54:49;;;;;;;40.20;24.60;;;;;;;;;;5117675;28;20035;-72
2022/11/13 13:57:39;;;;;;;38.45;24.02;;;;;;;;;;5116309;28;20019;-71
2022/11/13 14:00:25;;;;;;;41.88;24.60;;;;;;;;;;5116880;28;20059;-73
2022/11/13 14:03:20;;;;;;;40.45;24.73;;;;;;;;;;5117696;28;20132;-73
2022/11/13 14:06:26;;;;;;;41.78;25.02;;;;;;;;;;5102796;28;20019;-73
2022/11/13 14:09:19;;;;;;;41.47;24.08;;;;;;;;;;5102523;28;20020;-72
2022/11/13 14:12:06;;;;;;;39.20;23.73;;;;;;;;;;5116381;28;20051;-72
2022/11/13 14:14:51;;;;;;;35.22;23.45;;;;;;;;;;5103068;28;20020;-73
2022/11/13 14:17:38;;;;;;;39.33;25.48;;;;;;;;;;5101108;28;20018;-71
2022/11/13 14:20:23;;;;;;;38.83;24.23;;;;;;;;;;5115133;28;20104;-72
2022/11/13 14:23:11;;;;;;;39.20;24.98;;;;;;;;;;5115527;28;20396;-73
2022/11/13 14:25:57;;;;;;;37.53;24.73;;;;;;;;;;5115915;28;20031;-72
2022/11/13 14:28:51;;;;;;;38.67;24.23;;;;;;;;;;5116298;28;20418;-73
2022/11/13 14:31:37;;;;;;;41.13;25.30;;;;;;;;;;5116665;28;20081;-73
2022/11/13 14:34:22;;;;;;;42.22;26.25;;;;;;;;;;5115892;28;20031;-72
2022/11/13 14:37:29;;;;;;;43.13;25.17;;;;;;;;;;5115715;28;20062;-72
2022/11/13 14:40:23;;;;;;;42.83;25.55;;;;;;;;;;5115273;28;20039;-73
2022/11/13 14:43:15;;;;;;;40.65;24.83;;;;;;;;;;5115464;28;20132;-73
2022/11/13 14:46:03;;;;;;;39.67;25.00;;;;;;;;;;5102035;28;20016;-74
2022/11/13 14:48:53;;;;;;;42.95;26.17;;;;;;;;;;5101112;28;20027;-73
2022/11/13 14:51:39;;;;;;;42.30;25.73;;;;;;;;;;5117153;28;20396;-75
2022/11/13 14:54:35;;;;;;;47.42;26.88;;;;;;;;;;5100522;28;20371;-73
2022/11/13 14:57:20;;;;;;;47.33;27.88;;;;;;;;;;5115580;28;20093;-73
2022/11/13 15:00:10;;;;;;;44.85;28.40;;;;;;;;;;5115142;28;20047;-73
2022/11/13 15:02:56;;;;;;;50.50;29.23;;;;;;;;;;5115525;28;20020;-72
2022/11/13 15:05:42;;;;;;;48.65;27.75;;;;;;;;;;5102038;28;20054;-72
2022/11/13 15:08:28;;;;;;;45.88;27.48;;;;;;;;;;5115340;28;20152;-73
2022/11/13 15:11:14;;;;;;;56.40;28.90;;;;;;;;;;5115219;28;20432;-74
2022/11/13 15:14:00;;;;;;;48.60;28.15;;;;;;;;;;5115851;28;20077;-72
2022/11/13 15:16:46;;;;;;;49.08;28.67;;;;;;;;;;5115883;28;20019;-71
2022/11/13 15:19:33;;;;;;;53.67;30.70;;;;;;;;;;5117804;28;20032;-72
2022/11/13 15:22:19;;;;;;;52.80;31.63;;;;;;;;;;5119927;28;20016;-71
2022/11/13 15:25:11;;;;;;;54.53;30.50;;;;;;;;;;5115215;28;20165;-73
2022/11/13 15:27:57;;;;;;;52.03;30.55;;;;;;;;;;5101109;28;20409;-73
2022/11/13 15:30:42;;;;;;;56.30;32.22;;;;;;;;;;5115460;28;20439;-72
2022/11/13 15:33:28;;;;;;;55.20;32.10;;;;;;;;;;5118473;28;20027;-73
2022/11/13 15:36:14;;;;;;;68.95;34.00;;;;;;;;;;5114613;28;20020;-73
2022/11/13 15:39:00;;;;;;;65.30;38.30;;;;;;;;;;5114941;28;20032;-73
2022/11/13 15:41:46;;;;;;;82.88;47.05;;;;;;;;;;5113881;28;20333;-73
2022/11/13 15:44:31;;;;;;;84.20;49.15;;;;;;;;;;5114574;28;20012;-70
2022/11/13 15:47:30;;;;;;;86.88;49.13;;;;;;;;;;5114281;28;20066;-72
2022/11/13 15:50:16;;;;;;;76.35;45.80;;;;;;;;;;5115564;28;20027;-70
2022/11/13 15:53:02;;;;;;;82.57;47.97;;;;;;;;;;5114666;28;20511;-72
2022/11/13 15:55:48;;;;;;;79.15;47.63;;;;;;;;;;5114423;28;20093;-71
2022/11/13 15:58:33;;;;;;;77.22;46.53;;;;;;;;;;5114201;28;20066;-71
2022/11/13 16:01:19;;;;;;;80.03;49.22;;;;;;;;;;5114260;28;20348;-71
2022/11/13 16:04:05;;;;;;;90.07;50.95;;;;;;;;;;5114876;28;20027;-71
2022/11/13 16:06:50;;;;;;;88.90;50.38;;;;;;;;;;5116665;28;20015;-71
2022/11/13 16:09:36;;;;;;;91.72;54.47;;;;;;;;;;5118732;28;20510;-73
2022/11/13 16:12:22;;;;;;;98.85;54.33;;;;;;;;;;5119015;28;20062;-76
2022/11/13 16:15:08;;;;;;;98.50;53.72;;;;;;;;;;5119807;28;20023;-72
2022/11/13 16:17:55;;;;;;;92.40;50.53;;;;;;;;;;5117612;28;20024;-74
2022/11/13 16:20:41;;;;;;;96.47;52.67;;;;;;;;;;5118424;28;20019;-73
2022/11/13 16:23:26;;;;;;;104.28;59.65;;;;;;;;;;5118519;28;20035;-74